Airfield :
LOGIN :

Register | Disclaimer

   EN    FR    IT 

 










Legend :    VFR   Marginal VFR   IFR   Intensive IFR   Very Intensive IFR
Visi :
Ceiling :
>= 8 km
>= 3000ft
5 to 8 km
1000 to 3000 ft
1500m to 5 km
500 to 1000 ft
800 to 1500m
200 to 500 ft
< 800m
< 200 ft
Symbols :   Thunderstorms  Fog  Heavy snow  Heavy precipitations  Wind > 20 kt
SIGMETs :     Misc.  Thunderstorms  Icing  Turbulence  Mountain Waves  Volcanic Ashes






- Airport Elevation : 12 ft
- IATA code : NCE


LFMN - Nice

CURRENT METAR :
  • 282200Z 32005KT CAVOK 20/14 Q1015 NOSIG

EXPIRED METARs :
  • 282130Z 21002KT CAVOK 19/15 Q1015 NOSIG
  • 282100Z 22003KT CAVOK 19/15 Q1015 NOSIG
  • 282030Z 21002KT CAVOK 20/15 Q1015 NOSIG
  • 282000Z 23002KT 9999 FEW096 BKN260 20/15 Q1015 NOSIG
  • 281930Z 19002KT 9999 FEW096 BKN260 20/16 Q1014 NOSIG
  • 281900Z 20002KT 9999 FEW096 BKN260 20/16 Q1014 NOSIG
  • 281830Z 17002KT 9999 FEW096 BKN260 21/15 Q1014 NOSIG
  • 281800Z 00000KT 9999 FEW096 BKN260 21/16 Q1014 NOSIG
  • 281730Z VRB03KT 9999 FEW096 BKN260 21/16 Q1014 NOSIG

TAF TAF LFMN
Valid from the 28 at 21:00 until the 30 at 03:00 UTC


282000Z 2821/3003 33005KT CAVOK
PROB40
TEMPO 2912/2917 20010KT
ATIS : +33 4 93 17 21 16



MET'MAP, your aeronautical weather chart ! - Copyright ORBIFLY December 2007 - Disclaimer

ORBIFLY MET'MAP TEAM :

Programming & Development : Alexandra Zaïnal
Original concept : Baudouin d'Aumeries
Technical & hardware support : Manuel Goepfert
Assistance : Marc-Olivier Méhu




SOURCES & CREDITS :

   NOAA